sensor_id;sensor_type;location;lat;lon;timestamp;temperature;humidity
37412;DHT22;23278;52.110;6.050;2024-02-26T16:32:52;6.60;99.90
37412;DHT22;23278;52.110;6.050;2024-02-26T16:35:18;6.50;99.90
37412;DHT22;23278;52.110;6.050;2024-02-26T16:37:44;6.60;99.90
37412;DHT22;23278;52.110;6.050;2024-02-26T16:40:12;6.70;99.90
37412;DHT22;23278;52.110;6.050;2024-02-26T16:42:41;6.80;99.90
37412;DHT22;23278;52.110;6.050;2024-02-26T16:45:07;6.90;99.90
37412;DHT22;23278;52.110;6.050;2024-02-26T16:47:34;6.90;99.90
37412;DHT22;23278;52.110;6.050;2024-02-26T16:50:03;7.00;99.90
37412;DHT22;23278;52.110;6.050;2024-02-26T16:52:32;7.00;99.90
37412;DHT22;23278;52.110;6.050;2024-02-26T16:54:59;7.10;99.90
37412;DHT22;23278;52.110;6.050;2024-02-26T16:57:25;7.00;99.90
37412;DHT22;23278;52.110;6.050;2024-02-26T16:59:52;7.00;99.90
37412;DHT22;23278;52.110;6.050;2024-02-26T17:02:18;7.10;99.90
37412;DHT22;23278;52.110;6.050;2024-02-26T17:04:44;7.10;99.90
37412;DHT22;23278;52.110;6.050;2024-02-26T17:07:10;7.10;99.90
37412;DHT22;23278;52.110;6.050;2024-02-26T17:09:35;7.10;99.90
37412;DHT22;23278;52.110;6.050;2024-02-26T17:12:01;7.10;99.90
37412;DHT22;23278;52.110;6.050;2024-02-26T17:14:27;7.10;99.90
37412;DHT22;23278;52.110;6.050;2024-02-26T17:16:57;7.10;99.90
37412;DHT22;23278;52.110;6.050;2024-02-26T17:19:25;7.20;99.90
37412;DHT22;23278;52.110;6.050;2024-02-26T17:21:52;7.10;99.90
37412;DHT22;23278;52.110;6.050;2024-02-26T17:24:19;7.20;99.90
37412;DHT22;23278;52.110;6.050;2024-02-26T17:26:44;7.20;99.90
37412;DHT22;23278;52.110;6.050;2024-02-26T17:29:11;7.20;99.90
37412;DHT22;23278;52.110;6.050;2024-02-26T17:31:37;7.20;99.90
37412;DHT22;23278;52.110;6.050;2024-02-26T17:34:08;7.10;99.90
37412;DHT22;23278;52.110;6.050;2024-02-26T17:36:36;7.10;99.90
37412;DHT22;23278;52.110;6.050;2024-02-26T17:39:02;7.10;99.90
37412;DHT22;23278;52.110;6.050;2024-02-26T17:41:28;7.10;99.90
37412;DHT22;23278;52.110;6.050;2024-02-26T17:43:54;7.10;99.90
37412;DHT22;23278;52.110;6.050;2024-02-26T17:46:20;7.00;99.90
37412;DHT22;23278;52.110;6.050;2024-02-26T17:48:46;6.90;99.90
37412;DHT22;23278;52.110;6.050;2024-02-26T17:51:12;6.90;99.90
37412;DHT22;23278;52.110;6.050;2024-02-26T17:53:39;6.90;99.90
37412;DHT22;23278;52.110;6.050;2024-02-26T17:56:06;6.90;99.90
37412;DHT22;23278;52.110;6.050;2024-02-26T17:58:33;6.90;99.90
37412;DHT22;23278;52.110;6.050;2024-02-26T18:00:59;7.00;99.90
37412;DHT22;23278;52.110;6.050;2024-02-26T18:03:26;7.00;99.90
37412;DHT22;23278;52.110;6.050;2024-02-26T18:05:52;7.00;99.90
37412;DHT22;23278;52.110;6.050;2024-02-26T18:08:18;7.10;99.90
37412;DHT22;23278;52.110;6.050;2024-02-26T18:10:50;7.10;99.90
37412;DHT22;23278;52.110;6.050;2024-02-26T18:13:16;7.10;99.90
37412;DHT22;23278;52.110;6.050;2024-02-26T18:15:42;7.10;99.90
37412;DHT22;23278;52.110;6.050;2024-02-26T18:18:08;7.10;99.90
37412;DHT22;23278;52.110;6.050;2024-02-26T18:20:34;7.10;99.90
37412;DHT22;23278;52.110;6.050;2024-02-26T18:23:00;7.10;99.90
37412;DHT22;23278;52.110;6.050;2024-02-26T18:25:26;7.00;99.90
37412;DHT22;23278;52.110;6.050;2024-02-26T18:27:52;7.10;99.90
37412;DHT22;23278;52.110;6.050;2024-02-26T18:30:18;7.10;99.90
37412;DHT22;23278;52.110;6.050;2024-02-26T18:32:44;7.10;99.90
37412;DHT22;23278;52.110;6.050;2024-02-26T18:35:10;7.10;99.90
37412;DHT22;23278;52.110;6.050;2024-02-26T18:37:36;7.10;99.90
37412;DHT22;23278;52.110;6.050;2024-02-26T18:40:03;7.00;99.90
37412;DHT22;23278;52.110;6.050;2024-02-26T18:42:38;7.10;99.90
37412;DHT22;23278;52.110;6.050;2024-02-26T18:45:05;7.10;99.90
37412;DHT22;23278;52.110;6.050;2024-02-26T18:47:32;7.10;99.90
37412;DHT22;23278;52.110;6.050;2024-02-26T18:49:58;7.10;99.90
37412;DHT22;23278;52.110;6.050;2024-02-26T18:52:26;7.10;99.90
37412;DHT22;23278;52.110;6.050;2024-02-26T18:54:51;7.00;99.90
37412;DHT22;23278;52.110;6.050;2024-02-26T18:57:17;7.00;99.90
37412;DHT22;23278;52.110;6.050;2024-02-26T18:59:43;7.10;99.90
37412;DHT22;23278;52.110;6.050;2024-02-26T19:02:11;7.10;99.90
37412;DHT22;23278;52.110;6.050;2024-02-26T19:04:38;7.00;99.90
37412;DHT22;23278;52.110;6.050;2024-02-26T19:07:04;7.00;99.90
37412;DHT22;23278;52.110;6.050;2024-02-26T19:09:31;7.00;99.90
37412;DHT22;23278;52.110;6.050;2024-02-26T19:11:57;7.00;99.90
37412;DHT22;23278;52.110;6.050;2024-02-26T19:14:23;7.00;99.90
37412;DHT22;23278;52.110;6.050;2024-02-26T19:16:49;7.00;99.90
37412;DHT22;23278;52.110;6.050;2024-02-26T19:19:18;7.00;99.90
37412;DHT22;23278;52.110;6.050;2024-02-26T19:21:46;7.00;99.90
37412;DHT22;23278;52.110;6.050;2024-02-26T19:24:12;7.00;99.90
37412;DHT22;23278;52.110;6.050;2024-02-26T19:26:41;7.00;99.90
37412;DHT22;23278;52.110;6.050;2024-02-26T19:29:07;7.00;99.90
37412;DHT22;23278;52.110;6.050;2024-02-26T19:31:33;7.00;99.90
37412;DHT22;23278;52.110;6.050;2024-02-26T19:33:59;7.00;99.90
37412;DHT22;23278;52.110;6.050;2024-02-26T19:36:24;7.00;99.90
37412;DHT22;23278;52.110;6.050;2024-02-26T19:38:50;7.00;99.90
37412;DHT22;23278;52.110;6.050;2024-02-26T19:41:16;7.10;99.90
37412;DHT22;23278;52.110;6.050;2024-02-26T19:43:42;7.00;99.90
37412;DHT22;23278;52.110;6.050;2024-02-26T19:46:08;7.00;99.90
37412;DHT22;23278;52.110;6.050;2024-02-26T19:48:34;7.00;99.90
37412;DHT22;23278;52.110;6.050;2024-02-26T19:51:00;7.00;99.90
37412;DHT22;23278;52.110;6.050;2024-02-26T19:53:26;6.90;99.90
37412;DHT22;23278;52.110;6.050;2024-02-26T19:55:52;6.90;99.90
37412;DHT22;23278;52.110;6.050;2024-02-26T19:58:18;6.90;99.90
37412;DHT22;23278;52.110;6.050;2024-02-26T20:00:45;6.90;99.90
37412;DHT22;23278;52.110;6.050;2024-02-26T20:03:11;6.90;99.90
37412;DHT22;23278;52.110;6.050;2024-02-26T20:05:37;6.90;99.90
37412;DHT22;23278;52.110;6.050;2024-02-26T20:08:03;6.90;99.90
37412;DHT22;23278;52.110;6.050;2024-02-26T20:10:29;6.90;99.90
37412;DHT22;23278;52.110;6.050;2024-02-26T20:12:56;6.90;99.90
37412;DHT22;23278;52.110;6.050;2024-02-26T20:15:24;6.90;99.90
37412;DHT22;23278;52.110;6.050;2024-02-26T20:17:50;6.90;99.90
37412;DHT22;23278;52.110;6.050;2024-02-26T20:20:16;6.90;99.90
37412;DHT22;23278;52.110;6.050;2024-02-26T20:22:43;6.90;99.90
37412;DHT22;23278;52.110;6.050;2024-02-26T20:25:11;7.00;99.90
37412;DHT22;23278;52.110;6.050;2024-02-26T20:27:37;6.90;99.90
37412;DHT22;23278;52.110;6.050;2024-02-26T20:30:04;6.90;99.90
37412;DHT22;23278;52.110;6.050;2024-02-26T20:32:30;7.00;99.90
37412;DHT22;23278;52.110;6.050;2024-02-26T20:35:00;6.90;99.90
37412;DHT22;23278;52.110;6.050;2024-02-26T20:37:26;6.90;99.90
37412;DHT22;23278;52.110;6.050;2024-02-26T20:39:52;6.90;99.90
37412;DHT22;23278;52.110;6.050;2024-02-26T20:42:18;6.90;99.90
37412;DHT22;23278;52.110;6.050;2024-02-26T20:44:47;6.80;99.90
37412;DHT22;23278;52.110;6.050;2024-02-26T20:47:17;6.80;99.90
37412;DHT22;23278;52.110;6.050;2024-02-26T20:49:43;6.90;99.90
37412;DHT22;23278;52.110;6.050;2024-02-26T20:52:09;6.80;99.90
37412;DHT22;23278;52.110;6.050;2024-02-26T20:54:35;6.70;99.90
37412;DHT22;23278;52.110;6.050;2024-02-26T20:57:01;6.70;99.90
37412;DHT22;23278;52.110;6.050;2024-02-26T20:59:30;6.70;99.90
37412;DHT22;23278;52.110;6.050;2024-02-26T21:01:58;6.70;99.90
37412;DHT22;23278;52.110;6.050;2024-02-26T21:04:24;6.70;99.90
37412;DHT22;23278;52.110;6.050;2024-02-26T21:06:51;6.60;99.90
37412;DHT22;23278;52.110;6.050;2024-02-26T21:09:16;6.60;99.90
37412;DHT22;23278;52.110;6.050;2024-02-26T21:11:44;6.70;99.90
37412;DHT22;23278;52.110;6.050;2024-02-26T21:14:10;6.70;99.90
37412;DHT22;23278;52.110;6.050;2024-02-26T21:16:35;6.70;99.90
37412;DHT22;23278;52.110;6.050;2024-02-26T21:19:01;6.70;99.90
37412;DHT22;23278;52.110;6.050;2024-02-26T21:21:30;6.70;99.90
37412;DHT22;23278;52.110;6.050;2024-02-26T21:23:58;6.70;99.90
37412;DHT22;23278;52.110;6.050;2024-02-26T21:26:24;6.70;99.90
37412;DHT22;23278;52.110;6.050;2024-02-26T21:28:51;6.70;99.90
37412;DHT22;23278;52.110;6.050;2024-02-26T21:31:17;6.70;99.90
37412;DHT22;23278;52.110;6.050;2024-02-26T21:33:42;6.70;99.90
37412;DHT22;23278;52.110;6.050;2024-02-26T21:36:08;6.70;99.90
37412;DHT22;23278;52.110;6.050;2024-02-26T21:38:34;6.60;99.90
37412;DHT22;23278;52.110;6.050;2024-02-26T21:41:00;6.70;99.90
37412;DHT22;23278;52.110;6.050;2024-02-26T21:43:26;6.70;99.90
37412;DHT22;23278;52.110;6.050;2024-02-26T21:45:52;6.70;99.90
37412;DHT22;23278;52.110;6.050;2024-02-26T21:48:18;6.60;99.90
37412;DHT22;23278;52.110;6.050;2024-02-26T21:50:44;6.60;99.90
37412;DHT22;23278;52.110;6.050;2024-02-26T21:53:10;6.60;99.90
37412;DHT22;23278;52.110;6.050;2024-02-26T21:55:35;6.70;99.90
37412;DHT22;23278;52.110;6.050;2024-02-26T21:58:01;6.70;99.90
37412;DHT22;23278;52.110;6.050;2024-02-26T22:00:27;6.70;99.90
37412;DHT22;23278;52.110;6.050;2024-02-26T22:02:53;6.70;99.90
37412;DHT22;23278;52.110;6.050;2024-02-26T22:05:19;6.70;99.90
37412;DHT22;23278;52.110;6.050;2024-02-26T22:07:45;6.70;99.90
37412;DHT22;23278;52.110;6.050;2024-02-26T22:10:41;6.60;99.90
37412;DHT22;23278;52.110;6.050;2024-02-26T22:13:21;6.60;99.90
37412;DHT22;23278;52.110;6.050;2024-02-26T22:16:14;6.60;99.90
37412;DHT22;23278;52.110;6.050;2024-02-26T22:21:46;6.60;99.90
37412;DHT22;23278;52.110;6.050;2024-02-26T22:24:26;6.50;99.90
37412;DHT22;23278;52.110;6.050;2024-02-26T22:26:58;6.50;99.90
37412;DHT22;23278;52.110;6.050;2024-02-26T22:29:30;6.50;99.90
37412;DHT22;23278;52.110;6.050;2024-02-26T22:31:56;6.50;99.90
37412;DHT22;23278;52.110;6.050;2024-02-26T22:34:25;6.50;99.90
37412;DHT22;23278;52.110;6.050;2024-02-26T22:36:50;6.50;99.90
37412;DHT22;23278;52.110;6.050;2024-02-26T22:39:16;6.50;99.90
37412;DHT22;23278;52.110;6.050;2024-02-26T22:41:43;6.40;99.90
37412;DHT22;23278;52.110;6.050;2024-02-26T22:44:10;6.40;99.90
37412;DHT22;23278;52.110;6.050;2024-02-26T22:46:37;6.30;99.90
37412;DHT22;23278;52.110;6.050;2024-02-26T22:49:03;6.40;99.90
37412;DHT22;23278;52.110;6.050;2024-02-26T22:51:29;6.30;99.90
37412;DHT22;23278;52.110;6.050;2024-02-26T22:53:55;6.40;99.90
37412;DHT22;23278;52.110;6.050;2024-02-26T22:56:21;6.40;99.90
37412;DHT22;23278;52.110;6.050;2024-02-26T22:58:46;6.40;99.90
37412;DHT22;23278;52.110;6.050;2024-02-26T23:01:12;6.40;99.90
37412;DHT22;23278;52.110;6.050;2024-02-26T23:03:38;6.40;99.90
37412;DHT22;23278;52.110;6.050;2024-02-26T23:06:04;6.40;99.90
37412;DHT22;23278;52.110;6.050;2024-02-26T23:08:32;6.40;99.90
37412;DHT22;23278;52.110;6.050;2024-02-26T23:10:58;6.40;99.90
37412;DHT22;23278;52.110;6.050;2024-02-26T23:13:27;6.40;99.90
37412;DHT22;23278;52.110;6.050;2024-02-26T23:15:53;6.40;99.90
37412;DHT22;23278;52.110;6.050;2024-02-26T23:18:21;6.40;99.90
37412;DHT22;23278;52.110;6.050;2024-02-26T23:20:47;6.40;99.90
37412;DHT22;23278;52.110;6.050;2024-02-26T23:23:14;6.40;99.90
37412;DHT22;23278;52.110;6.050;2024-02-26T23:25:40;6.40;99.90
37412;DHT22;23278;52.110;6.050;2024-02-26T23:28:05;6.40;99.90
37412;DHT22;23278;52.110;6.050;2024-02-26T23:30:34;6.30;99.90
37412;DHT22;23278;52.110;6.050;2024-02-26T23:33:00;6.30;99.90
37412;DHT22;23278;52.110;6.050;2024-02-26T23:35:26;6.30;99.90
37412;DHT22;23278;52.110;6.050;2024-02-26T23:37:51;6.30;99.90
37412;DHT22;23278;52.110;6.050;2024-02-26T23:40:18;6.20;99.90
37412;DHT22;23278;52.110;6.050;2024-02-26T23:42:44;6.20;99.90
37412;DHT22;23278;52.110;6.050;2024-02-26T23:45:10;6.20;99.90
37412;DHT22;23278;52.110;6.050;2024-02-26T23:47:36;6.10;99.90
37412;DHT22;23278;52.110;6.050;2024-02-26T23:50:03;6.10;99.90
37412;DHT22;23278;52.110;6.050;2024-02-26T23:52:29;6.00;99.90
37412;DHT22;23278;52.110;6.050;2024-02-26T23:54:55;6.10;99.90
37412;DHT22;23278;52.110;6.050;2024-02-26T23:57:21;6.00;99.90
37412;DHT22;23278;52.110;6.050;2024-02-26T23:59:47;6.00;99.90
